createdAt,value
2022-10-19T00:02:26.228Z,0
2022-10-19T00:11:25.910Z,0
2022-10-19T00:16:45.103Z,0
2022-10-19T00:23:19.264Z,0
2022-10-19T00:27:24.100Z,0
2022-10-19T00:32:43.710Z,0
2022-10-19T00:39:17.891Z,0
2022-10-19T00:43:21.985Z,0
2022-10-19T00:48:41.191Z,0
2022-10-19T00:54:00.486Z,0
2022-10-19T01:04:40.162Z,0
2022-10-19T01:09:57.051Z,0
2022-10-19T01:15:16.059Z,0
2022-10-19T01:25:54.560Z,0
2022-10-19T01:31:13.337Z,0
2022-10-19T01:36:33.229Z,0
2022-10-19T01:41:52.809Z,0
2022-10-19T01:47:12.249Z,0
2022-10-19T01:52:31.977Z,0
2022-10-19T01:57:51.333Z,0
2022-10-19T01:58:17.435Z,0
2022-10-19T02:03:36.683Z,0
2022-10-19T02:10:10.864Z,0
2022-10-19T02:14:15.933Z,0
2022-10-19T02:24:54.303Z,0
2022-10-19T02:30:12.298Z,0
2022-10-19T02:37:10.871Z,0
2022-10-19T02:40:51.435Z,0
2022-10-19T02:46:10.246Z,0
2022-10-19T02:51:29.789Z,0
2022-10-19T02:56:48.723Z,0
2022-10-19T03:02:07.873Z,0
2022-10-19T03:07:26.454Z,0
2022-10-19T03:12:45.868Z,0
2022-10-19T03:23:23.721Z,0
2022-10-19T03:28:42.424Z,0
2022-10-19T03:34:01.684Z,0
2022-10-19T03:39:20.622Z,0
2022-10-19T03:44:39.679Z,0
2022-10-19T03:49:59.105Z,0
2022-10-19T04:00:38.262Z,0
2022-10-19T04:05:57.332Z,0
2022-10-19T04:11:16.830Z,0
2022-10-19T04:21:55.309Z,0
2022-10-19T04:27:14.819Z,0
2022-10-19T04:32:33.617Z,0
2022-10-19T04:37:52.971Z,0
2022-10-19T04:43:12.298Z,0
2022-10-19T04:48:31.842Z,0
2022-10-19T04:59:10.630Z,0
2022-10-19T05:04:29.910Z,0
2022-10-19T05:09:49.504Z,0
2022-10-19T05:15:09.125Z,0
2022-10-19T05:20:27.956Z,0
2022-10-19T05:25:47.254Z,0
2022-10-19T05:31:06.951Z,0
2022-10-19T05:39:40.018Z,0.0048
2022-10-19T05:41:45.011Z,0.009
2022-10-19T05:57:42.170Z,0.0262
2022-10-19T06:03:01.606Z,0.0298
2022-10-19T06:08:21.342Z,0.0354
2022-10-19T06:16:54.481Z,0.039
2022-10-19T06:21:09.839Z,0.0396
2022-10-19T06:24:17.392Z,0.0432
2022-10-19T06:29:36.473Z,0.0475
2022-10-19T06:34:56.512Z,0.0474
2022-10-19T06:41:29.633Z,0.0549
2022-10-19T06:45:46.163Z,0.0622
2022-10-19T06:50:54.880Z,0.0581
2022-10-19T06:56:13.742Z,0.0711
2022-10-19T07:01:33.045Z,0.083
2022-10-19T07:06:52.583Z,0.0925
2022-10-19T07:12:12.081Z,0.0914
2022-10-19T07:22:50.143Z,0.1048
2022-10-19T07:28:09.189Z,0.1127
2022-10-19T07:33:28.049Z,0.1297
2022-10-19T07:42:01.110Z,0.1142
2022-10-19T07:44:05.721Z,0.1622
2022-10-19T07:51:04.309Z,0.1723
2022-10-19T07:54:44.511Z,0.1872
2022-10-19T08:00:03.804Z,0.1625
2022-10-19T08:05:23.395Z,0.1297
2022-10-19T08:10:41.813Z,0.1287
2022-10-19T08:16:01.310Z,0.1488
2022-10-19T08:21:20.093Z,0.1691
2022-10-19T08:26:39.382Z,0.1602
2022-10-19T08:33:13.555Z,0.1808
2022-10-19T08:37:26.206Z,0.1486
2022-10-19T08:45:52.182Z,0.1617
2022-10-19T08:47:55.929Z,0.166
2022-10-19T08:54:54.525Z,0.1672
2022-10-19T09:03:55.693Z,0.1786
2022-10-19T09:09:13.290Z,0.1827
2022-10-19T09:14:30.916Z,0.1861
2022-10-19T09:19:50.384Z,0.2048
2022-10-19T09:25:09.237Z,0.2251
2022-10-19T09:30:28.589Z,0.2235
2022-10-19T09:35:47.791Z,0.2184
2022-10-19T09:46:25.465Z,0.2287
2022-10-19T09:51:45.139Z,0.2195
2022-10-19T09:57:03.677Z,0.2181
2022-10-19T10:02:23.357Z,0.2197
2022-10-19T10:07:43.132Z,0.2126
2022-10-19T10:13:03.402Z,0.2104
2022-10-19T10:18:22.607Z,0.2559
2022-10-19T10:29:01.500Z,0.2586
2022-10-19T10:34:23.131Z,0.2709
2022-10-19T10:44:59.083Z,0.2497
2022-10-19T10:50:17.999Z,0.2371
2022-10-19T10:56:52.209Z,0.2686
2022-10-19T11:01:07.924Z,0.2761
2022-10-19T11:08:06.176Z,0.2843
2022-10-19T11:11:35.212Z,0.2777
2022-10-19T11:22:12.389Z,0.2693
2022-10-19T11:29:10.954Z,0.2833
2022-10-19T11:32:52.334Z,0.2871
2022-10-19T11:38:20.582Z,0.2867
2022-10-19T11:48:51.657Z,0.2434
2022-10-19T11:54:10.011Z,0.2648
2022-10-19T12:04:45.763Z,0.2456
2022-10-19T12:10:04.592Z,0.2223
2022-10-19T12:20:43.906Z,0.1988
2022-10-19T12:26:02.741Z,0.1895
2022-10-19T12:31:22.374Z,0.2053
2022-10-19T12:36:42.069Z,0.225
2022-10-19T12:42:01.179Z,0.2099
2022-10-19T12:47:20.127Z,0.2003
2022-10-19T12:52:39.213Z,0.1839
2022-10-19T13:03:16.311Z,0.1906
2022-10-19T13:08:35.486Z,0.164
2022-10-19T13:13:54.488Z,0.1416
2022-10-19T13:19:13.391Z,0.1529
2022-10-19T13:24:33.108Z,0.1595
2022-10-19T13:29:52.670Z,0.1357
2022-10-19T13:35:12.971Z,0.1309
2022-10-19T13:45:51.919Z,0.1242
2022-10-19T13:51:10.124Z,0.1028
2022-10-19T13:56:30.189Z,0.117
2022-10-19T14:01:49.167Z,0.1388
2022-10-19T14:07:07.983Z,0.153
2022-10-19T14:12:28.263Z,0.1461
2022-10-19T14:17:47.889Z,0.1577
2022-10-19T14:28:26.470Z,0.1717
2022-10-19T14:33:45.826Z,0.1821
2022-10-19T14:39:05.190Z,0.1816
2022-10-19T14:46:03.803Z,0.1694
2022-10-19T14:49:44.920Z,0.171
2022-10-19T14:55:03.725Z,0.1408
2022-10-19T15:00:22.146Z,0.1357
2022-10-19T15:05:41.462Z,0.1507
2022-10-19T15:11:00.380Z,0.1086
2022-10-19T15:21:37.707Z,0.0796
2022-10-19T15:27:08.967Z,0.0596
2022-10-19T15:32:17.679Z,0.0598
2022-10-19T15:37:36.470Z,0.0593
2022-10-19T15:42:55.599Z,0.0566
2022-10-19T15:53:32.858Z,0.0461
2022-10-19T15:58:53.184Z,0.0494
2022-10-19T16:09:31.678Z,0.0426
2022-10-19T16:14:51.259Z,0.0341
2022-10-19T16:20:10.085Z,0.0278
2022-10-19T16:25:29.521Z,0.0167
2022-10-19T16:30:48.488Z,0.0072
2022-10-19T16:36:07.413Z,0.0012
2022-10-19T16:41:27.562Z,0
2022-10-19T16:52:05.119Z,0
2022-10-19T16:57:24.759Z,0
2022-10-19T17:03:58.987Z,0
2022-10-19T17:08:02.424Z,0
2022-10-19T17:13:21.844Z,0
2022-10-19T17:18:40.382Z,0
2022-10-19T17:23:59.463Z,0
2022-10-19T17:29:19.480Z,0
2022-10-19T17:34:38.990Z,0
2022-10-19T17:39:57.723Z,0
2022-10-19T17:50:36.332Z,0
2022-10-19T17:55:55.568Z,0
2022-10-19T18:01:14.667Z,0
2022-10-19T18:12:04.699Z,0
2022-10-19T18:17:10.976Z,0
2022-10-19T18:27:49.427Z,0
2022-10-19T18:33:09.046Z,0
2022-10-19T18:38:27.967Z,0
2022-10-19T18:43:47.518Z,0
2022-10-19T18:49:07.332Z,0
2022-10-19T18:54:26.790Z,0
2022-10-19T18:59:46.452Z,0
2022-10-19T19:10:24.979Z,0
2022-10-19T19:15:44.187Z,0
2022-10-19T19:28:02.499Z,0
2022-10-19T19:31:44.145Z,0
2022-10-19T19:37:06.078Z,0
2022-10-19T19:42:27.038Z,0
2022-10-19T19:47:41.659Z,0
2022-10-19T19:58:48.224Z,0
2022-10-19T20:04:07.467Z,0
2022-10-19T20:09:26.883Z,0
2022-10-19T20:14:45.753Z,0
2022-10-19T20:25:23.134Z,0
2022-10-19T20:30:42.150Z,0
2022-10-19T20:42:36.143Z,0
2022-10-19T20:46:42.050Z,0
2022-10-19T20:52:00.045Z,0
2022-10-19T20:57:19.329Z,0
2022-10-19T21:07:57.983Z,0
2022-10-19T21:13:17.103Z,0
2022-10-19T21:23:56.278Z,0
2022-10-19T21:29:15.788Z,0
2022-10-19T21:39:54.683Z,0
2022-10-19T21:51:47.794Z,0
2022-10-19T21:55:53.355Z,0
2022-10-19T22:06:30.636Z,0
2022-10-19T22:11:49.548Z,0
2022-10-19T22:17:08.485Z,0
2022-10-19T22:22:28.145Z,0
2022-10-19T22:27:47.422Z,0
2022-10-19T22:33:07.035Z,0
2022-10-19T22:38:26.175Z,0
2022-10-19T22:43:45.676Z,0
2022-10-19T22:49:04.144Z,0
2022-10-19T22:54:23.732Z,0
2022-10-19T23:05:03.174Z,0
2022-10-19T23:10:22.334Z,0
2022-10-19T23:15:43.045Z,0
2022-10-19T23:21:00.787Z,0
2022-10-19T23:26:20.312Z,0
2022-10-19T23:31:39.446Z,0
2022-10-19T23:36:58.503Z,0
2022-10-19T23:47:37.210Z,0
2022-10-19T23:52:56.237Z,0
2022-10-19T23:58:15.724Z,0
